createdAt,value
2022-10-17T00:01:33.808Z,33.99
2022-10-17T00:04:05.580Z,34.37
2022-10-17T00:06:34.888Z,34.14
2022-10-17T00:12:20.230Z,34.42
2022-10-17T00:14:49.349Z,33.71
2022-10-17T00:17:19.071Z,33.85
2022-10-17T00:19:48.365Z,34.81
2022-10-17T00:22:17.497Z,35.21
2022-10-17T00:24:46.627Z,34.93
2022-10-17T00:27:15.582Z,34.27
2022-10-17T00:29:44.716Z,33.57
2022-10-17T00:32:13.739Z,33.02
2022-10-17T00:34:42.889Z,32.67
2022-10-17T00:37:12.402Z,32.18
2022-10-17T00:39:41.670Z,31.78
2022-10-17T00:42:14.127Z,31.26
2022-10-17T00:44:48.376Z,31.05
2022-10-17T00:47:22.825Z,31.19
2022-10-17T00:49:52.255Z,30.62
2022-10-17T00:52:28.792Z,30.95
2022-10-17T00:55:03.687Z,31.22
2022-10-17T00:57:33.863Z,30.97
2022-10-17T01:00:08.177Z,30.70
2022-10-17T01:02:38.134Z,30.44
2022-10-17T01:05:08.472Z,29.92
2022-10-17T01:07:39.265Z,29.39
2022-10-17T01:10:10.349Z,28.93
2022-10-17T01:12:57.803Z,28.54
2022-10-17T01:15:32.655Z,28.27
2022-10-17T01:18:13.885Z,27.95
2022-10-17T01:21:12.655Z,27.66
2022-10-17T01:24:09.209Z,27.37
2022-10-17T01:27:04.676Z,27.16
2022-10-17T01:30:11.366Z,26.44
2022-10-17T01:32:50.249Z,26.42
2022-10-17T01:35:32.416Z,26.50
2022-10-17T01:38:36.838Z,26.35
2022-10-17T01:41:44.681Z,26.09
2022-10-17T01:44:35.886Z,26.00
2022-10-17T01:47:13.607Z,25.86
2022-10-17T01:49:45.252Z,25.76
2022-10-17T01:52:20.851Z,25.69
2022-10-17T01:55:09.600Z,24.88
2022-10-17T01:57:50.469Z,24.68
2022-10-17T02:00:23.824Z,24.69
2022-10-17T02:02:59.456Z,24.63
2022-10-17T02:05:41.966Z,24.54
2022-10-17T02:08:12.507Z,24.50
2022-10-17T02:11:01.937Z,24.66
2022-10-17T02:14:09.383Z,24.80
2022-10-17T02:17:13.886Z,24.67
2022-10-17T02:19:56.690Z,24.60
2022-10-17T02:22:58.593Z,24.28
2022-10-17T02:25:54.991Z,24.06
2022-10-17T02:28:43.881Z,23.95
2022-10-17T02:31:41.245Z,23.69
2022-10-17T02:34:47.976Z,23.47
2022-10-17T02:37:20.649Z,23.24
2022-10-17T02:39:53.061Z,23.20
2022-10-17T02:42:24.757Z,23.03
2022-10-17T02:44:55.989Z,22.67
2022-10-17T02:47:36.033Z,22.53
2022-10-17T02:50:11.889Z,22.30
2022-10-17T02:52:46.623Z,22.12
2022-10-17T02:55:20.681Z,21.85
2022-10-17T02:58:05.432Z,21.70
2022-10-17T03:00:36.197Z,21.50
2022-10-17T03:03:27.235Z,21.28
2022-10-17T03:05:56.550Z,21.26
2022-10-17T03:08:28.106Z,21.13
2022-10-17T03:10:58.764Z,20.95
2022-10-17T03:13:33.876Z,20.68
2022-10-17T03:16:07.195Z,20.73
2022-10-17T03:18:36.752Z,20.51
2022-10-17T03:21:06.449Z,20.14
2022-10-17T03:23:35.646Z,20.40
2022-10-17T03:26:07.732Z,20.43
2022-10-17T03:28:37.880Z,20.30
2022-10-17T03:31:17.119Z,20.20
2022-10-17T03:33:47.544Z,19.93
2022-10-17T03:36:19.254Z,19.83
2022-10-17T03:38:49.766Z,19.60
2022-10-17T03:41:19.760Z,19.35
2022-10-17T03:43:49.854Z,19.27
2022-10-17T03:46:19.620Z,19.16
2022-10-17T03:48:52.530Z,19.07
2022-10-17T03:51:22.056Z,18.95
2022-10-17T03:53:56.359Z,18.80
2022-10-17T03:56:26.556Z,18.68
2022-10-17T03:59:06.219Z,18.52
2022-10-17T04:01:38.459Z,18.48
2022-10-17T04:04:07.727Z,18.47
2022-10-17T04:06:38.662Z,18.25
2022-10-17T04:09:08.912Z,18.08
2022-10-17T04:12:05.823Z,18.02
2022-10-17T04:14:37.777Z,17.84
2022-10-17T04:17:07.078Z,17.77
2022-10-17T04:19:37.384Z,17.73
2022-10-17T04:22:09.382Z,17.70
2022-10-17T04:24:41.009Z,17.60
2022-10-17T04:27:12.286Z,17.54
2022-10-17T04:29:45.333Z,17.43
2022-10-17T04:32:19.192Z,17.44
2022-10-17T04:34:52.331Z,17.48
2022-10-17T04:37:24.066Z,17.43
2022-10-17T04:39:55.572Z,17.38
2022-10-17T04:42:24.825Z,17.32
2022-10-17T04:44:55.527Z,17.23
2022-10-17T04:47:26.846Z,17.16
2022-10-17T04:49:57.371Z,17.17
2022-10-17T04:52:26.874Z,17.17
2022-10-17T04:54:56.334Z,17.21
2022-10-17T04:57:25.825Z,17.15
2022-10-17T05:02:59.837Z,17.15
2022-10-17T05:05:31.533Z,17.23
2022-10-17T05:08:03.068Z,17.02
2022-10-17T05:10:54.287Z,17.05
2022-10-17T05:13:23.897Z,16.80
2022-10-17T05:15:53.038Z,16.96
2022-10-17T05:18:22.020Z,16.92
2022-10-17T05:20:51.217Z,16.93
2022-10-17T05:23:20.304Z,16.87
2022-10-17T05:25:49.442Z,16.71
2022-10-17T05:28:18.644Z,16.84
2022-10-17T05:30:49.161Z,16.69
2022-10-17T05:33:18.555Z,16.56
2022-10-17T05:35:47.604Z,16.71
2022-10-17T05:38:17.999Z,16.91
2022-10-17T05:40:47.739Z,16.81
2022-10-17T05:43:20.089Z,16.97
2022-10-17T05:45:49.609Z,16.96
2022-10-17T05:48:22.747Z,16.88
2022-10-17T05:51:06.507Z,16.83
2022-10-17T05:53:39.529Z,16.83
2022-10-17T05:56:15.262Z,16.87
2022-10-17T05:58:51.571Z,16.60
2022-10-17T06:01:57.794Z,16.63
2022-10-17T06:04:28.807Z,16.57
2022-10-17T06:06:57.886Z,16.51
2022-10-17T06:09:27.014Z,16.38
2022-10-17T06:11:57.021Z,16.21
2022-10-17T06:14:26.869Z,16.48
2022-10-17T06:17:03.551Z,16.34
2022-10-17T06:19:32.715Z,16.11
2022-10-17T06:22:01.819Z,16.38
2022-10-17T06:24:31.363Z,16.46
2022-10-17T06:27:09.333Z,16.41
2022-10-17T06:29:42.629Z,16.17
2022-10-17T06:32:15.063Z,16.38
2022-10-17T06:34:48.033Z,16.41
2022-10-17T06:37:17.412Z,16.45
2022-10-17T06:39:47.862Z,16.30
2022-10-17T06:42:23.224Z,16.38
2022-10-17T06:45:18.285Z,16.29
2022-10-17T06:47:56.817Z,16.31
2022-10-17T06:50:45.779Z,16.20
2022-10-17T06:53:21.214Z,16.07
2022-10-17T06:56:12.373Z,16.10
2022-10-17T06:58:59.882Z,15.95
2022-10-17T07:01:35.713Z,15.95
2022-10-17T07:04:06.665Z,15.85
2022-10-17T07:06:36.193Z,16.02
2022-10-17T07:09:14.132Z,15.88
2022-10-17T07:11:43.509Z,15.91
2022-10-17T07:14:12.507Z,15.95
2022-10-17T07:16:42.133Z,16.00
2022-10-17T07:19:31.301Z,15.94
2022-10-17T07:22:00.427Z,15.80
2022-10-17T07:24:30.420Z,15.81
2022-10-17T07:27:07.382Z,15.78
2022-10-17T07:29:37.612Z,15.36
2022-10-17T07:32:19.077Z,15.53
2022-10-17T07:34:48.111Z,15.65
2022-10-17T07:37:17.153Z,15.78
2022-10-17T07:39:52.807Z,15.79
2022-10-17T07:42:21.925Z,15.79
2022-10-17T07:44:52.080Z,15.73
2022-10-17T07:47:24.886Z,15.72
2022-10-17T07:49:54.792Z,15.32
2022-10-17T07:52:24.077Z,15.50
2022-10-17T07:54:53.182Z,15.55
2022-10-17T07:57:22.325Z,15.55
2022-10-17T07:59:52.270Z,15.57
2022-10-17T08:02:26.590Z,15.49
2022-10-17T08:04:56.026Z,15.48
2022-10-17T08:07:29.153Z,15.34
2022-10-17T08:09:58.748Z,15.62
2022-10-17T08:12:28.156Z,15.65
2022-10-17T08:14:57.381Z,15.45
2022-10-17T08:17:26.846Z,15.53
2022-10-17T08:19:55.923Z,15.56
2022-10-17T08:22:25.915Z,15.59
2022-10-17T08:24:55.104Z,15.36
2022-10-17T08:27:28.737Z,15.53
2022-10-17T08:29:57.835Z,15.54
2022-10-17T08:32:29.550Z,15.34
2022-10-17T08:34:59.116Z,15.59
2022-10-17T08:37:28.442Z,15.51
2022-10-17T08:39:57.707Z,15.57
2022-10-17T08:42:58.789Z,15.65
2022-10-17T08:45:35.306Z,15.66
2022-10-17T08:48:14.682Z,15.63
2022-10-17T08:50:46.043Z,15.49
2022-10-17T08:53:34.631Z,15.49
2022-10-17T08:56:43.931Z,15.48
2022-10-17T08:59:36.385Z,15.45
2022-10-17T09:02:20.733Z,15.39
2022-10-17T09:04:59.808Z,15.36
2022-10-17T09:07:37.935Z,15.30
2022-10-17T09:10:34.998Z,15.26
2022-10-17T09:13:06.866Z,15.22
2022-10-17T09:16:05.900Z,15.09
2022-10-17T09:18:41.114Z,15.03
2022-10-17T09:21:38.877Z,14.95
2022-10-17T09:24:31.240Z,14.89
2022-10-17T09:27:00.833Z,14.88
2022-10-17T09:29:36.076Z,14.84
2022-10-17T09:32:18.741Z,14.83
2022-10-17T09:34:47.894Z,14.78
2022-10-17T09:37:18.376Z,14.75
2022-10-17T09:39:47.687Z,14.68
2022-10-17T09:42:22.584Z,14.74
2022-10-17T09:45:31.231Z,14.74
2022-10-17T09:48:24.390Z,14.73
2022-10-17T09:51:08.176Z,14.70
2022-10-17T09:53:57.988Z,14.65
2022-10-17T09:56:27.115Z,14.63
2022-10-17T09:59:00.046Z,14.53
2022-10-17T10:01:32.368Z,14.59
2022-10-17T10:04:15.651Z,14.60
2022-10-17T10:07:13.260Z,14.59
2022-10-17T10:09:48.734Z,14.51
2022-10-17T10:12:27.544Z,14.41
2022-10-17T10:14:57.460Z,14.40
2022-10-17T10:17:46.520Z,14.42
2022-10-17T10:20:30.788Z,14.37
2022-10-17T10:23:23.027Z,14.45
2022-10-17T10:26:03.485Z,14.27
2022-10-17T10:28:37.407Z,14.46
2022-10-17T10:31:09.349Z,14.39
2022-10-17T10:33:46.881Z,14.40
2022-10-17T10:36:18.685Z,14.37
2022-10-17T10:38:56.339Z,14.38
2022-10-17T10:41:28.683Z,14.28
2022-10-17T10:43:57.721Z,14.24
2022-10-17T10:46:29.038Z,14.28
2022-10-17T10:49:01.081Z,14.30
2022-10-17T10:51:36.794Z,14.31
2022-10-17T10:54:22.811Z,14.32
2022-10-17T10:56:57.789Z,14.20
2022-10-17T10:59:52.295Z,14.12
2022-10-17T11:02:34.738Z,14.21
2022-10-17T11:05:13.289Z,14.14
2022-10-17T11:08:25.699Z,14.13
2022-10-17T11:11:26.590Z,14.12
2022-10-17T11:14:07.442Z,14.11
2022-10-17T11:16:59.032Z,14.12
2022-10-17T11:19:48.355Z,14.08
2022-10-17T11:22:32.148Z,14.05
2022-10-17T11:25:25.455Z,13.96
2022-10-17T11:27:54.532Z,13.93
2022-10-17T11:30:28.156Z,13.98
2022-10-17T11:33:01.287Z,13.94
2022-10-17T11:35:46.536Z,13.80
2022-10-17T11:38:21.498Z,13.88
2022-10-17T11:40:54.521Z,13.88
2022-10-17T11:43:41.854Z,13.82
2022-10-17T11:46:26.872Z,13.71
2022-10-17T11:49:19.809Z,13.71
2022-10-17T11:52:05.229Z,13.69
2022-10-17T11:54:37.018Z,13.66
2022-10-17T11:57:38.072Z,13.52
2022-10-17T12:00:49.072Z,13.58
2022-10-17T12:03:46.521Z,13.64
2022-10-17T12:06:25.857Z,13.55
2022-10-17T12:09:18.524Z,13.51
2022-10-17T12:11:54.611Z,13.46
2022-10-17T12:14:39.515Z,13.33
2022-10-17T12:17:31.047Z,13.32
2022-10-17T12:20:36.747Z,13.29
2022-10-17T12:23:12.589Z,13.25
2022-10-17T12:25:59.689Z,13.24
2022-10-17T12:28:39.801Z,13.11
2022-10-17T12:31:18.364Z,13.11
2022-10-17T12:33:51.840Z,13.02
2022-10-17T12:36:23.819Z,13.04
2022-10-17T12:39:03.690Z,13.08
2022-10-17T12:41:42.242Z,13.02
2022-10-17T12:44:14.646Z,13.00
2022-10-17T12:46:58.666Z,12.99
2022-10-17T12:49:51.995Z,12.80
2022-10-17T12:52:36.004Z,12.72
2022-10-17T12:55:13.514Z,12.83
2022-10-17T12:58:03.699Z,12.53
2022-10-17T13:00:37.578Z,12.69
2022-10-17T13:03:11.831Z,12.28
2022-10-17T13:05:45.083Z,12.43
2022-10-17T13:08:23.239Z,12.49
2022-10-17T13:10:54.850Z,12.31
2022-10-17T13:13:42.699Z,12.49
2022-10-17T13:16:36.723Z,12.67
2022-10-17T13:19:17.460Z,12.29
2022-10-17T13:22:02.283Z,12.32
2022-10-17T13:24:41.249Z,12.56
2022-10-17T13:27:32.589Z,12.30
2022-10-17T13:30:03.675Z,12.34
2022-10-17T13:32:41.631Z,12.64
2022-10-17T13:35:13.931Z,12.39
2022-10-17T13:37:50.272Z,12.26
2022-10-17T13:40:49.533Z,12.00
2022-10-17T13:43:21.849Z,12.00
2022-10-17T13:45:59.888Z,12.00
2022-10-17T13:48:39.140Z,12.26
2022-10-17T13:51:11.185Z,11.92
2022-10-17T13:53:44.725Z,12.07
2022-10-17T13:56:28.773Z,12.11
2022-10-17T13:59:06.130Z,12.11
2022-10-17T14:01:35.396Z,12.31
2022-10-17T14:04:19.588Z,12.32
2022-10-17T14:06:52.276Z,12.42
2022-10-17T14:09:31.927Z,12.43
2022-10-17T14:12:08.768Z,12.38
2022-10-17T14:15:05.256Z,12.38
2022-10-17T14:17:31.304Z,12.11
2022-10-17T14:20:26.576Z,12.19
2022-10-17T14:23:29.223Z,12.33
2022-10-17T14:25:49.814Z,12.33
2022-10-17T14:28:19.376Z,12.35
2022-10-17T14:30:56.868Z,12.32
2022-10-17T14:33:32.235Z,12.31
2022-10-17T14:36:03.844Z,12.31
2022-10-17T14:38:33.293Z,12.21
2022-10-17T14:44:00.269Z,12.19
2022-10-17T14:46:29.921Z,12.14
2022-10-17T14:49:21.723Z,12.07
2022-10-17T14:52:15.338Z,12.03
2022-10-17T14:54:50.909Z,12.07
2022-10-17T14:57:44.579Z,12.10
2022-10-17T15:00:18.744Z,12.06
2022-10-17T15:02:49.106Z,12.08
2022-10-17T15:05:18.609Z,12.03
2022-10-17T15:07:47.847Z,12.03
2022-10-17T15:10:44.452Z,12.03
2022-10-17T15:13:27.690Z,11.91
2022-10-17T15:15:58.018Z,11.98
2022-10-17T15:18:27.018Z,11.93
2022-10-17T15:21:05.039Z,11.78
2022-10-17T15:23:43.297Z,11.90
2022-10-17T15:26:24.820Z,11.93
2022-10-17T15:28:54.910Z,11.75
2022-10-17T15:31:26.664Z,11.77
2022-10-17T15:33:56.091Z,11.86
2022-10-17T15:36:25.081Z,11.62
2022-10-17T15:38:57.557Z,11.62
2022-10-17T15:41:29.177Z,11.89
2022-10-17T15:43:59.282Z,11.99
2022-10-17T15:46:34.714Z,12.00
2022-10-17T15:49:08.426Z,11.97
2022-10-17T15:51:38.055Z,11.99
2022-10-17T15:54:07.301Z,12.07
2022-10-17T15:56:44.216Z,11.88
2022-10-17T15:59:16.232Z,11.99
2022-10-17T16:01:45.815Z,12.27
2022-10-17T16:04:16.646Z,11.93
2022-10-17T16:06:46.583Z,11.69
2022-10-17T16:09:15.712Z,11.81
2022-10-17T16:11:45.822Z,12.08
2022-10-17T16:14:19.008Z,12.29
2022-10-17T16:16:48.821Z,12.50
2022-10-17T16:19:18.068Z,12.60
2022-10-17T16:21:47.307Z,12.49
2022-10-17T16:24:16.407Z,12.56
2022-10-17T16:26:46.451Z,12.60
2022-10-17T16:29:15.579Z,12.51
2022-10-17T16:31:46.508Z,12.63
2022-10-17T16:34:16.838Z,12.84
2022-10-17T16:36:45.886Z,13.16
2022-10-17T16:39:14.916Z,13.10
2022-10-17T16:41:43.969Z,13.16
2022-10-17T16:44:18.304Z,13.12
2022-10-17T16:46:48.142Z,13.20
2022-10-17T16:49:19.144Z,13.45
2022-10-17T16:51:48.477Z,13.60
2022-10-17T16:54:17.668Z,13.41
2022-10-17T16:56:47.055Z,13.26
2022-10-17T16:59:16.122Z,13.55
2022-10-17T17:01:45.239Z,13.67
2022-10-17T17:04:14.482Z,13.58
2022-10-17T17:09:17.651Z,13.64
2022-10-17T17:11:46.686Z,13.88
2022-10-17T17:14:15.934Z,13.91
2022-10-17T17:16:45.111Z,13.90
2022-10-17T17:19:17.704Z,13.89
2022-10-17T17:21:51.212Z,14.04
2022-10-17T17:24:22.384Z,14.16
2022-10-17T17:26:54.330Z,14.24
2022-10-17T17:29:24.602Z,14.34
2022-10-17T17:31:54.147Z,14.40
2022-10-17T17:34:23.287Z,14.60
2022-10-17T17:36:52.386Z,14.60
2022-10-17T17:39:21.467Z,14.64
2022-10-17T17:41:50.524Z,14.70
2022-10-17T17:44:19.576Z,14.89
2022-10-17T17:46:48.845Z,14.97
2022-10-17T17:49:17.965Z,15.16
2022-10-17T17:51:47.380Z,15.20
2022-10-17T17:54:16.764Z,14.99
2022-10-17T17:56:45.775Z,15.18
2022-10-17T17:59:14.897Z,15.22
2022-10-17T18:01:44.684Z,15.08
2022-10-17T18:04:14.164Z,15.17
2022-10-17T18:06:43.488Z,15.37
2022-10-17T18:09:12.746Z,15.39
2022-10-17T18:11:42.801Z,15.23
2022-10-17T18:14:14.607Z,15.33
2022-10-17T18:16:43.692Z,15.58
2022-10-17T18:19:13.054Z,15.64
2022-10-17T18:21:42.250Z,15.88
2022-10-17T18:24:11.917Z,15.86
2022-10-17T18:26:40.977Z,16.01
2022-10-17T18:29:10.360Z,16.29
2022-10-17T18:31:39.605Z,16.60
2022-10-17T18:34:08.669Z,17.01
2022-10-17T18:36:38.592Z,17.39
2022-10-17T18:39:08.053Z,17.61
2022-10-17T18:41:37.103Z,17.45
2022-10-17T18:44:06.198Z,17.59
2022-10-17T18:46:41.451Z,17.43
2022-10-17T18:49:15.839Z,17.51
2022-10-17T18:51:44.879Z,17.79
2022-10-17T18:54:17.931Z,17.81
2022-10-17T18:56:54.736Z,17.61
2022-10-17T18:59:24.225Z,17.83
2022-10-17T19:01:53.310Z,17.90
2022-10-17T19:04:22.573Z,18.17
2022-10-17T19:06:51.562Z,18.77
2022-10-17T19:09:21.066Z,18.20
2022-10-17T19:11:50.156Z,18.63
2022-10-17T19:14:19.153Z,19.03
2022-10-17T19:16:49.945Z,18.24
2022-10-17T19:19:25.649Z,18.20
2022-10-17T19:21:55.368Z,18.17
2022-10-17T19:24:29.169Z,17.94
2022-10-17T19:27:03.494Z,18.34
2022-10-17T19:29:34.062Z,18.57
2022-10-17T19:32:14.142Z,19.08
2022-10-17T19:34:46.025Z,19.10
2022-10-17T19:37:15.281Z,19.06
2022-10-17T19:39:44.476Z,19.26
2022-10-17T19:42:13.461Z,19.33
2022-10-17T19:44:42.558Z,19.35
2022-10-17T19:47:11.562Z,19.56
2022-10-17T19:49:40.709Z,20.08
2022-10-17T19:52:09.885Z,19.86
2022-10-17T19:54:41.382Z,19.50
2022-10-17T19:57:10.743Z,19.55
2022-10-17T19:59:39.825Z,20.58
2022-10-17T20:02:09.437Z,20.13
2022-10-17T20:04:49.544Z,20.50
2022-10-17T20:07:28.226Z,20.11
2022-10-17T20:09:57.265Z,20.33
2022-10-17T20:12:26.300Z,19.97
2022-10-17T20:14:55.305Z,20.83
2022-10-17T20:17:24.528Z,20.10
2022-10-17T20:19:53.834Z,19.57
2022-10-17T20:22:22.894Z,19.67
2022-10-17T20:24:51.965Z,19.82
2022-10-17T20:27:25.470Z,19.96
2022-10-17T20:30:02.437Z,19.79
2022-10-17T20:32:39.502Z,19.73
2022-10-17T20:35:09.544Z,19.91
2022-10-17T20:37:42.517Z,19.93
2022-10-17T20:43:01.662Z,20.76
2022-10-17T20:45:44.040Z,21.32
2022-10-17T20:48:20.571Z,20.98
2022-10-17T20:50:49.973Z,21.06
2022-10-17T20:53:37.304Z,20.54
2022-10-17T20:56:14.355Z,20.93
2022-10-17T20:58:43.416Z,21.17
2022-10-17T21:01:13.001Z,21.67
2022-10-17T21:03:45.593Z,22.48
2022-10-17T21:06:16.751Z,20.91
2022-10-17T21:08:47.018Z,21.01
2022-10-17T21:11:29.435Z,21.45
2022-10-17T21:14:06.209Z,21.60
2022-10-17T21:16:37.718Z,21.94
2022-10-17T21:19:07.446Z,21.00
2022-10-17T21:21:39.087Z,21.62
2022-10-17T21:24:13.821Z,21.90
2022-10-17T21:26:44.776Z,20.73
2022-10-17T21:29:14.801Z,21.03
2022-10-17T21:31:46.011Z,22.45
2022-10-17T21:34:22.056Z,21.96
2022-10-17T21:36:51.643Z,21.47
2022-10-17T21:39:20.781Z,21.97
2022-10-17T21:41:50.095Z,22.01
2022-10-17T21:44:21.824Z,21.94
2022-10-17T21:46:51.817Z,22.17
2022-10-17T21:49:24.893Z,21.95
2022-10-17T21:51:54.838Z,21.71
2022-10-17T21:54:24.775Z,20.88
2022-10-17T21:56:54.419Z,21.07
2022-10-17T21:59:23.854Z,20.92
2022-10-17T22:01:53.498Z,21.68
2022-10-17T22:04:22.688Z,22.20
2022-10-17T22:06:52.130Z,22.38
2022-10-17T22:09:25.536Z,22.12
2022-10-17T22:11:57.858Z,21.30
2022-10-17T22:14:28.542Z,21.10
2022-10-17T22:16:57.780Z,20.79
2022-10-17T22:19:28.138Z,21.07
2022-10-17T22:21:57.195Z,21.02
2022-10-17T22:24:26.155Z,21.19
2022-10-17T22:26:55.381Z,21.70
2022-10-17T22:29:24.403Z,21.71
2022-10-17T22:31:53.849Z,21.77
2022-10-17T22:34:22.844Z,22.11
2022-10-17T22:36:51.906Z,21.75
2022-10-17T22:39:21.126Z,21.94
2022-10-17T22:41:50.114Z,21.42
2022-10-17T22:44:19.309Z,22.28
2022-10-17T22:46:48.404Z,22.22
2022-10-17T22:49:17.514Z,22.18
2022-10-17T22:51:46.540Z,22.05
2022-10-17T22:54:15.711Z,21.98
2022-10-17T22:56:44.635Z,21.94
2022-10-17T22:59:13.758Z,22.11
2022-10-17T23:01:42.865Z,21.89
2022-10-17T23:04:12.094Z,21.89
2022-10-17T23:06:41.087Z,22.06
2022-10-17T23:09:10.164Z,21.47
2022-10-17T23:11:39.185Z,21.28
2022-10-17T23:14:08.231Z,20.93
2022-10-17T23:16:37.209Z,20.51
2022-10-17T23:19:06.310Z,20.34
2022-10-17T23:21:35.283Z,20.39
2022-10-17T23:24:04.550Z,20.87
2022-10-17T23:26:33.502Z,20.91
2022-10-17T23:29:03.058Z,21.07
2022-10-17T23:31:32.337Z,20.52
2022-10-17T23:34:01.624Z,20.51
2022-10-17T23:39:04.572Z,20.51
2022-10-17T23:41:33.928Z,20.80
2022-10-17T23:44:03.695Z,20.94
2022-10-17T23:46:32.790Z,21.10
2022-10-17T23:49:02.640Z,21.13
2022-10-17T23:51:31.717Z,21.13
2022-10-17T23:54:00.982Z,21.10
2022-10-17T23:56:30.189Z,21.23
2022-10-17T23:58:59.272Z,21.31
